Time;durP1;ratioP1;P1;durP2;ratioP2;P2;SDS_P1;SDS_P2;PMS_P1;PMS_P2;Temp;Humidity;BMP_temperature;BMP_pressure;BME280_temperature;BME280_humidity;BME280_pressure;Samples;Min_cycle;Max_cycle;Signal;HPM_P1;HPM_P2
2023/05/25 00:02:17;;;;;;;1.05;1.05;;;20.50;63.20;;;;;;5053237;28;20052;-79
2023/05/25 00:04:47;;;;;;;0.90;0.90;;;20.50;63.10;;;;;;5049058;28;20405;-79
2023/05/25 00:07:12;;;;;;;1.20;1.20;;;20.40;63.10;;;;;;5050894;28;20044;-79
2023/05/25 00:09:39;;;;;;;1.00;1.00;;;20.40;63.00;;;;;;5048797;28;20032;-79
2023/05/25 00:12:05;;;;;;;1.45;1.35;;;20.40;63.00;;;;;;5038085;28;20059;-79
2023/05/25 00:14:32;;;;;;;1.23;1.20;;;20.40;63.00;;;;;;5052203;28;20057;-79
2023/05/25 00:17:02;;;;;;;1.10;1.00;;;20.40;63.10;;;;;;5054089;28;20571;-79
2023/05/25 00:19:27;;;;;;;1.05;1.05;;;20.40;63.10;;;;;;5033388;28;20587;-79
2023/05/25 00:21:53;;;;;;;1.25;1.25;;;20.40;63.10;;;;;;5046056;28;20045;-79
2023/05/25 00:24:19;;;;;;;1.30;1.20;;;20.40;63.90;;;;;;5049895;28;20406;-79
2023/05/25 00:26:44;;;;;;;1.25;1.25;;;20.40;63.10;;;;;;5039496;28;20127;-79
2023/05/25 00:29:11;;;;;;;1.40;1.30;;;20.40;63.10;;;;;;5054214;28;20045;-79
2023/05/25 00:31:36;;;;;;;1.05;1.05;;;20.40;63.00;;;;;;5054547;28;20036;-79
2023/05/25 00:34:02;;;;;;;1.10;1.10;;;20.40;63.80;;;;;;5045648;28;20056;-79
2023/05/25 00:36:28;;;;;;;0.90;0.90;;;20.40;63.00;;;;;;5051754;28;20115;-79
2023/05/25 00:38:53;;;;;;;1.23;0.88;;;20.40;63.00;;;;;;5052415;28;20490;-79
2023/05/25 00:41:19;;;;;;;1.20;1.10;;;20.40;63.00;;;;;;5049577;28;20046;-79
2023/05/25 00:43:45;;;;;;;1.25;1.15;;;20.40;63.00;;;;;;5015841;28;20041;-79
2023/05/25 00:46:15;;;;;;;1.10;1.00;;;20.40;63.00;;;;;;5063527;28;20041;-79
2023/05/25 00:48:41;;;;;;;0.90;0.90;;;20.40;63.00;;;;;;5044411;28;20545;-79
2023/05/25 00:51:07;;;;;;;0.90;0.90;;;20.40;63.00;;;;;;5054757;28;20036;-79
2023/05/25 00:53:33;;;;;;;1.20;1.20;;;20.40;63.00;;;;;;5035606;28;20148;-79
2023/05/25 00:56:10;;;;;;;1.42;1.15;;;20.40;63.00;;;;;;5046735;28;20037;-79
2023/05/25 00:58:36;;;;;;;0.90;0.90;;;20.40;63.00;;;;;;5054655;28;20044;-79
2023/05/25 01:01:01;;;;;;;0.90;0.90;;;20.40;63.00;;;;;;5045009;28;20041;-79
2023/05/25 01:03:28;;;;;;;0.93;0.93;;;20.40;63.00;;;;;;5047633;28;20321;-79
2023/05/25 01:05:54;;;;;;;1.10;1.10;;;20.40;63.00;;;;;;5019464;28;20079;-79
2023/05/25 01:08:21;;;;;;;1.00;1.00;;;20.40;63.00;;;;;;5044174;28;20036;-79
2023/05/25 01:10:48;;;;;;;0.85;0.85;;;20.40;63.00;;;;;;5037397;28;20063;-79
2023/05/25 01:13:14;;;;;;;0.93;0.90;;;20.40;63.00;;;;;;5049171;28;20072;-78
2023/05/25 01:15:40;;;;;;;1.10;1.10;;;20.40;63.00;;;;;;5057673;28;20405;-78
2023/05/25 01:18:05;;;;;;;1.10;1.05;;;20.40;63.00;;;;;;5037270;28;20502;-79
2023/05/25 01:20:31;;;;;;;0.77;0.77;;;20.40;63.00;;;;;;5055965;28;20032;-79
2023/05/25 01:23:06;;;;;;;0.93;0.93;;;20.40;62.90;;;;;;5059739;28;20048;-79
2023/05/25 01:25:41;;;;;;;1.13;1.05;;;20.40;63.00;;;;;;5046949;28;20029;-79
2023/05/25 01:28:10;;;;;;;1.02;1.02;;;20.40;62.90;;;;;;5055036;28;20524;-79
2023/05/25 01:30:36;;;;;;;0.98;0.98;;;20.40;62.90;;;;;;5046895;28;20048;-79
2023/05/25 01:33:01;;;;;;;0.93;0.93;;;20.40;62.90;;;;;;5046074;28;20029;-79
2023/05/25 01:35:27;;;;;;;0.93;0.93;;;20.40;62.80;;;;;;5019042;28;20033;-79
2023/05/25 01:37:53;;;;;;;1.10;1.10;;;20.30;62.80;;;;;;5044032;28;20107;-79
2023/05/25 01:40:18;;;;;;;0.90;0.90;;;20.30;62.80;;;;;;5040065;28;20033;-79
2023/05/25 01:42:44;;;;;;;1.10;1.10;;;20.40;63.00;;;;;;5053171;28;20405;-79
2023/05/25 01:45:10;;;;;;;0.70;0.70;;;20.30;62.80;;;;;;5048505;28;20095;-79
2023/05/25 01:47:40;;;;;;;1.25;1.13;;;20.30;62.80;;;;;;5048883;28;20514;-79
2023/05/25 01:50:09;;;;;;;0.63;0.63;;;20.30;62.80;;;;;;5051996;28;20041;-79
2023/05/25 01:52:37;;;;;;;1.20;1.15;;;20.30;62.80;;;;;;5054567;28;20043;-79
2023/05/25 01:55:09;;;;;;;0.85;0.85;;;20.30;62.90;;;;;;5046732;28;20106;-79
2023/05/25 01:57:35;;;;;;;0.90;0.90;;;20.30;62.80;;;;;;5041994;28;20044;-79
2023/05/25 02:00:02;;;;;;;0.93;0.93;;;20.30;62.80;;;;;;5060404;28;20139;-79
2023/05/25 02:02:27;;;;;;;1.20;1.10;;;20.30;62.80;;;;;;5039118;28;20048;-79
2023/05/25 02:04:53;;;;;;;0.88;0.88;;;20.30;62.80;;;;;;5042588;28;20040;-79
2023/05/25 02:07:19;;;;;;;0.80;0.80;;;20.30;62.80;;;;;;5024573;28;20048;-79
2023/05/25 02:09:45;;;;;;;1.00;0.95;;;20.30;62.90;;;;;;5043965;28;20072;-79
2023/05/25 02:12:10;;;;;;;1.30;1.20;;;20.30;62.90;;;;;;5041475;28;20068;-79
2023/05/25 02:14:36;;;;;;;0.95;0.95;;;20.30;62.90;;;;;;5043231;28;20518;-79
2023/05/25 02:17:02;;;;;;;0.90;0.90;;;20.30;62.90;;;;;;5042277;28;20409;-79
2023/05/25 02:19:28;;;;;;;0.90;0.90;;;20.30;63.00;;;;;;5045164;28;20522;-79
2023/05/25 02:21:54;;;;;;;1.30;1.20;;;20.30;63.80;;;;;;5044823;28;20045;-79
2023/05/25 02:24:23;;;;;;;0.98;0.98;;;20.30;62.90;;;;;;5043580;28;20045;-79
2023/05/25 02:26:49;;;;;;;0.85;0.85;;;20.30;63.70;;;;;;5045403;28;20048;-79
2023/05/25 02:29:14;;;;;;;0.80;0.80;;;20.30;62.90;;;;;;5049109;28;20052;-79
2023/05/25 02:31:40;;;;;;;1.40;1.30;;;20.30;62.90;;;;;;5049360;28;20051;-79
2023/05/25 02:34:05;;;;;;;1.10;1.00;;;20.30;63.00;;;;;;5044418;28;20041;-78
2023/05/25 02:36:33;;;;;;;1.02;0.90;;;20.30;62.90;;;;;;5054157;28;20535;-79
2023/05/25 02:38:59;;;;;;;0.90;0.90;;;20.30;62.80;;;;;;5053411;28;20079;-79
2023/05/25 02:41:25;;;;;;;1.02;1.02;;;20.30;62.90;;;;;;5052919;28;20041;-79
2023/05/25 02:43:50;;;;;;;1.20;1.10;;;20.30;63.70;;;;;;5053054;28;20098;-79
2023/05/25 02:46:16;;;;;;;1.20;1.10;;;20.30;63.60;;;;;;5057830;28;20044;-79
2023/05/25 02:48:42;;;;;;;1.45;1.35;;;20.30;62.80;;;;;;5048570;28;20090;-79
2023/05/25 02:51:08;;;;;;;1.02;1.02;;;20.30;62.80;;;;;;5053998;28;20083;-79
2023/05/25 02:53:33;;;;;;;1.02;0.93;;;20.30;63.10;;;;;;5055964;28;20509;-79
2023/05/25 02:56:00;;;;;;;1.10;0.80;;;20.30;62.90;;;;;;5056958;28;20037;-79
2023/05/25 02:58:27;;;;;;;0.80;0.80;;;20.30;62.80;;;;;;5051270;28;20032;-79
2023/05/25 03:00:53;;;;;;;0.90;0.80;;;20.30;62.80;;;;;;5051576;28;20402;-79
2023/05/25 03:03:19;;;;;;;1.10;1.02;;;20.30;62.80;;;;;;5048668;28;20040;-79
2023/05/25 03:05:44;;;;;;;0.98;0.98;;;20.30;62.90;;;;;;5048937;28;20102;-79
2023/05/25 03:08:10;;;;;;;0.90;0.90;;;20.30;63.60;;;;;;5048644;28;20045;-78
2023/05/25 03:10:35;;;;;;;0.90;0.90;;;20.30;62.90;;;;;;5052099;28;20136;-79
2023/05/25 03:13:01;;;;;;;1.25;1.10;;;20.30;62.90;;;;;;5047405;28;20572;-78
2023/05/25 03:15:27;;;;;;;0.93;0.93;;;20.30;62.90;;;;;;5053937;28;20040;-78
2023/05/25 03:17:55;;;;;;;1.15;0.90;;;20.30;63.00;;;;;;5036013;28;20072;-78
2023/05/25 03:20:23;;;;;;;0.85;0.80;;;20.30;63.00;;;;;;5052151;28;20043;-78
2023/05/25 03:22:49;;;;;;;1.08;1.00;;;20.30;63.00;;;;;;5052628;28;20047;-78
2023/05/25 03:25:14;;;;;;;0.85;0.85;;;20.30;62.90;;;;;;5068538;28;20032;-78
2023/05/25 03:27:40;;;;;;;1.08;1.08;;;20.30;62.90;;;;;;5043613;28;20539;-78
2023/05/25 03:30:06;;;;;;;1.17;1.17;;;20.30;63.00;;;;;;5046189;28;20041;-78
2023/05/25 03:32:32;;;;;;;1.05;1.02;;;20.30;63.00;;;;;;5053068;28;20037;-78
2023/05/25 03:34:58;;;;;;;1.00;1.00;;;20.30;62.90;;;;;;5047793;28;20052;-78
2023/05/25 03:37:23;;;;;;;0.90;0.90;;;20.30;63.00;;;;;;5038695;28;20029;-79
2023/05/25 03:39:49;;;;;;;0.95;0.95;;;20.30;63.00;;;;;;5050873;28;20045;-78
2023/05/25 03:42:14;;;;;;;1.00;1.00;;;20.30;63.10;;;;;;5054907;28;20518;-78
2023/05/25 03:44:40;;;;;;;1.20;1.10;;;20.30;63.10;;;;;;5043141;28;20103;-79
2023/05/25 03:47:06;;;;;;;2.20;1.10;;;20.30;63.00;;;;;;5051393;28;20038;-78
2023/05/25 03:49:32;;;;;;;1.30;1.10;;;20.30;63.00;;;;;;5056280;28;20128;-78
2023/05/25 03:52:00;;;;;;;0.93;0.90;;;20.30;63.00;;;;;;5044338;28;20060;-78
2023/05/25 03:54:26;;;;;;;0.80;0.80;;;20.30;63.20;;;;;;5037502;28;20495;-78
2023/05/25 03:56:51;;;;;;;1.05;1.05;;;20.30;63.20;;;;;;5043855;28;20048;-78
2023/05/25 03:59:17;;;;;;;1.30;1.20;;;20.30;63.50;;;;;;5034058;28;20057;-78
2023/05/25 04:01:43;;;;;;;1.42;1.00;;;20.30;63.40;;;;;;5046344;28;20062;-78
2023/05/25 04:04:09;;;;;;;1.20;1.10;;;20.30;63.20;;;;;;5027665;28;20053;-78
2023/05/25 04:06:36;;;;;;;1.05;1.00;;;20.30;63.10;;;;;;5041657;28;20055;-78
2023/05/25 04:09:03;;;;;;;0.90;0.90;;;20.30;63.20;;;;;;5041005;28;20036;-78
2023/05/25 04:11:29;;;;;;;1.20;1.10;;;20.30;63.10;;;;;;5044728;28;20040;-78
2023/05/25 04:13:54;;;;;;;1.10;1.00;;;20.30;63.20;;;;;;5043734;28;20044;-79
2023/05/25 04:16:20;;;;;;;0.98;0.98;;;20.30;63.10;;;;;;5046222;28;20072;-79
2023/05/25 04:18:46;;;;;;;0.90;0.90;;;20.30;63.40;;;;;;5025501;28;20164;-79
2023/05/25 04:21:11;;;;;;;2.22;0.88;;;20.30;63.30;;;;;;5041973;28;20457;-78
2023/05/25 04:23:37;;;;;;;1.77;0.70;;;20.30;63.20;;;;;;5026732;28;20065;-79
2023/05/25 04:26:04;;;;;;;0.80;0.80;;;20.30;63.40;;;;;;5044953;28;20520;-79
2023/05/25 04:28:31;;;;;;;0.80;0.80;;;20.30;63.20;;;;;;5049053;28;20129;-79
2023/05/25 04:30:56;;;;;;;1.00;1.00;;;20.30;63.30;;;;;;5030015;28;20138;-78
2023/05/25 04:33:23;;;;;;;1.17;1.08;;;20.30;63.50;;;;;;5043621;28;20538;-79
2023/05/25 04:35:49;;;;;;;1.00;1.00;;;20.30;63.60;;;;;;5030090;28;20051;-79
2023/05/25 04:38:16;;;;;;;0.93;0.90;;;20.30;63.60;;;;;;5044672;28;20034;-78
2023/05/25 04:40:42;;;;;;;1.10;1.10;;;20.30;63.60;;;;;;5021109;28;20110;-78
2023/05/25 04:43:10;;;;;;;1.00;1.00;;;20.30;63.60;;;;;;5031797;28;20053;-78
2023/05/25 04:45:35;;;;;;;0.90;0.90;;;20.30;63.60;;;;;;5033294;28;20068;-78
2023/05/25 04:48:01;;;;;;;0.90;0.90;;;20.30;63.70;;;;;;5044250;28;20514;-78
2023/05/25 04:50:27;;;;;;;1.02;1.02;;;20.30;63.80;;;;;;5022942;28;20530;-78
2023/05/25 04:52:53;;;;;;;0.90;0.90;;;20.30;63.80;;;;;;5039203;28;20040;-78
2023/05/25 04:55:19;;;;;;;0.90;0.90;;;20.30;63.80;;;;;;5059021;28;20110;-78
2023/05/25 04:57:44;;;;;;;0.75;0.75;;;20.30;63.80;;;;;;5055419;28;20046;-78
2023/05/25 05:00:11;;;;;;;0.90;0.90;;;20.30;63.80;;;;;;5055774;28;20095;-78
2023/05/25 05:02:36;;;;;;;1.10;1.08;;;20.30;63.70;;;;;;5057835;28;20092;-78
2023/05/25 05:05:02;;;;;;;1.15;1.15;;;20.30;63.80;;;;;;5049960;28;20527;-78
2023/05/25 05:07:28;;;;;;;1.27;1.17;;;20.30;63.80;;;;;;5034690;28;20434;-78
2023/05/25 05:09:53;;;;;;;0.95;0.93;;;20.30;63.80;;;;;;5057166;28;20036;-78
2023/05/25 05:12:19;;;;;;;0.90;0.90;;;20.30;63.70;;;;;;5020029;28;20102;-78
2023/05/25 05:14:45;;;;;;;1.30;1.20;;;20.20;63.70;;;;;;5054180;28;20075;-78
2023/05/25 05:17:11;;;;;;;0.70;0.70;;;20.20;63.70;;;;;;5057577;28;20043;-79
2023/05/25 05:19:37;;;;;;;0.70;0.70;;;20.30;63.80;;;;;;5052530;28;20064;-78
2023/05/25 05:22:02;;;;;;;0.85;0.85;;;20.20;63.70;;;;;;5048557;28;20033;-78
2023/05/25 05:24:28;;;;;;;0.90;0.90;;;20.20;63.70;;;;;;5037534;28;20037;-78
2023/05/25 05:26:53;;;;;;;1.20;0.85;;;20.20;63.70;;;;;;5048784;28;20041;-78
2023/05/25 05:29:19;;;;;;;0.80;0.80;;;20.30;63.70;;;;;;5054981;28;20057;-78
2023/05/25 05:31:45;;;;;;;0.90;0.90;;;20.20;63.60;;;;;;5051646;28;20045;-78
2023/05/25 05:34:10;;;;;;;1.10;1.10;;;20.20;63.60;;;;;;5048937;28;20060;-79
2023/05/25 05:36:36;;;;;;;0.93;0.93;;;20.20;63.60;;;;;;5051585;28;20441;-79
2023/05/25 05:39:02;;;;;;;0.95;0.95;;;20.20;64.30;;;;;;5052127;28;20047;-77
2023/05/25 05:41:27;;;;;;;1.00;1.00;;;20.20;63.60;;;;;;4694594;28;10000566;-78
2023/05/25 05:43:54;;;;;;;2.60;2.40;;;20.20;63.40;;;;;;4681792;28;9999817;-80
2023/05/25 05:46:19;;;;;;;4.63;2.63;;;20.00;59.70;;;;;;5035399;28;20279;-79
2023/05/25 05:48:45;;;;;;;3.70;3.15;;;19.80;59.00;;;;;;5042131;28;20524;-79
2023/05/25 05:51:11;;;;;;;4.25;3.35;;;19.60;58.90;;;;;;5047701;28;20641;-79
2023/05/25 05:53:36;;;;;;;4.28;3.42;;;19.50;59.00;;;;;;5051690;28;20073;-78
2023/05/25 05:56:02;;;;;;;3.95;3.55;;;19.30;59.10;;;;;;5047169;28;20041;-79
2023/05/25 05:58:28;;;;;;;4.13;3.15;;;19.30;59.20;;;;;;5040825;28;20049;-78
2023/05/25 06:00:55;;;;;;;5.43;3.58;;;19.20;59.40;;;;;;5048099;28;20044;-79
2023/05/25 06:03:23;;;;;;;4.57;3.30;;;19.10;59.60;;;;;;5042511;28;20041;-79
2023/05/25 06:05:49;;;;;;;4.05;3.63;;;19.10;59.90;;;;;;5048223;28;20132;-79
2023/05/25 06:08:14;;;;;;;5.35;3.33;;;19.10;60.50;;;;;;5049626;28;20045;-79
2023/05/25 06:10:41;;;;;;;7.03;4.47;;;19.10;60.00;;;;;;5046155;28;20033;-79
2023/05/25 06:13:07;;;;;;;4.80;3.78;;;19.00;59.90;;;;;;5037440;28;20079;-81
2023/05/25 06:15:32;;;;;;;4.93;4.10;;;19.00;60.20;;;;;;5044888;28;20044;-79
2023/05/25 06:17:58;;;;;;;5.50;3.92;;;19.00;60.50;;;;;;5032451;28;20053;-79
2023/05/25 06:20:23;;;;;;;5.20;4.07;;;19.00;60.40;;;;;;5031601;28;20044;-79
2023/05/25 06:22:49;;;;;;;4.30;3.90;;;19.00;60.70;;;;;;5045014;28;20049;-79
2023/05/25 06:25:15;;;;;;;4.95;3.50;;;18.90;61.10;;;;;;5035200;28;20040;-80
2023/05/25 06:27:40;;;;;;;6.38;4.15;;;18.80;61.40;;;;;;5044239;28;20139;-79
2023/05/25 06:30:08;;;;;;;5.80;4.00;;;18.80;61.60;;;;;;5049943;28;20110;-79
2023/05/25 06:32:34;;;;;;;5.20;4.30;;;18.80;61.50;;;;;;5047447;28;20058;-79
2023/05/25 06:35:01;;;;;;;7.60;4.00;;;18.80;61.50;;;;;;5032634;28;20048;-80
2023/05/25 06:37:27;;;;;;;4.68;4.20;;;18.80;61.70;;;;;;5055607;28;20101;-79
2023/05/25 06:39:52;;;;;;;5.22;3.72;;;18.80;61.70;;;;;;5043842;28;20049;-81
2023/05/25 06:42:18;;;;;;;6.85;4.50;;;18.80;61.80;;;;;;5046070;28;20045;-79
2023/05/25 06:44:43;;;;;;;5.20;3.80;;;18.90;62.00;;;;;;5047331;28;20241;-80
2023/05/25 06:47:09;;;;;;;7.18;4.30;;;18.70;62.30;;;;;;5031690;28;20041;-79
2023/05/25 06:49:34;;;;;;;4.68;4.35;;;18.70;62.60;;;;;;5052102;28;20094;-79
2023/05/25 06:52:00;;;;;;;4.88;4.38;;;18.80;62.60;;;;;;5049517;28;20048;-77
2023/05/25 06:54:26;;;;;;;5.03;4.25;;;18.80;62.50;;;;;;5039539;28;20467;-77
2023/05/25 06:56:51;;;;;;;5.85;4.20;;;18.80;62.70;;;;;;5043952;28;20544;-78
2023/05/25 06:59:17;;;;;;;5.90;4.50;;;18.80;62.60;;;;;;5043292;28;20117;-79
2023/05/25 07:01:45;;;;;;;6.38;4.20;;;18.80;63.40;;;;;;5048350;28;20403;-82
2023/05/25 07:04:10;;;;;;;3.40;3.10;;;18.90;63.40;;;;;;5040575;28;20051;-81
2023/05/25 07:06:36;;;;;;;6.68;3.45;;;19.00;63.30;;;;;;5042357;28;20049;-80
2023/05/25 07:09:01;;;;;;;4.53;3.05;;;19.10;63.20;;;;;;5045386;28;20088;-81
2023/05/25 07:11:27;;;;;;;3.72;3.03;;;19.20;63.10;;;;;;5050812;28;20049;-80
2023/05/25 07:13:52;;;;;;;4.13;2.83;;;19.20;63.00;;;;;;5053585;28;20072;-80
2023/05/25 07:16:18;;;;;;;3.92;3.53;;;19.30;63.20;;;;;;5046744;28;20517;-80
2023/05/25 07:18:44;;;;;;;3.05;2.63;;;19.30;63.10;;;;;;5038416;28;20046;-81
2023/05/25 07:21:10;;;;;;;3.15;2.65;;;19.30;63.10;;;;;;5038204;28;20120;-80
2023/05/25 07:23:36;;;;;;;3.15;2.83;;;19.30;63.20;;;;;;5043992;28;20049;-80
2023/05/25 07:26:02;;;;;;;3.13;2.72;;;19.40;63.20;;;;;;5045800;28;20079;-81
2023/05/25 07:28:27;;;;;;;3.38;2.40;;;19.40;63.30;;;;;;5058251;28;20037;-80
2023/05/25 07:30:53;;;;;;;4.03;2.70;;;19.40;63.40;;;;;;5032031;28;20032;-81
2023/05/25 07:33:18;;;;;;;2.97;2.63;;;19.50;63.30;;;;;;5043419;28;20051;-81
2023/05/25 07:35:44;;;;;;;3.75;2.50;;;19.50;63.40;;;;;;5040202;28;20483;-80
2023/05/25 07:38:09;;;;;;;3.58;2.55;;;19.50;63.70;;;;;;5031246;28;20107;-82
2023/05/25 07:40:35;;;;;;;3.85;2.15;;;19.50;63.50;;;;;;5044866;28;20045;-83
2023/05/25 07:43:01;;;;;;;3.53;2.47;;;19.60;63.40;;;;;;5037304;28;20151;-82
2023/05/25 07:45:26;;;;;;;2.83;2.33;;;19.60;64.60;;;;;;5045441;28;20040;-81
2023/05/25 07:47:52;;;;;;;3.45;2.05;;;19.60;63.70;;;;;;5045684;28;20115;-81
2023/05/25 07:50:17;;;;;;;2.63;2.15;;;19.60;64.10;;;;;;5048216;28;20491;-81
2023/05/25 07:52:43;;;;;;;2.75;2.15;;;19.60;64.20;;;;;;5045293;28;20094;-81
2023/05/25 07:55:09;;;;;;;3.47;2.13;;;19.60;64.30;;;;;;5046787;28;20045;-81
2023/05/25 07:57:34;;;;;;;2.20;2.00;;;19.60;64.20;;;;;;5035096;28;20131;-81
2023/05/25 08:00:00;;;;;;;2.38;2.17;;;19.70;64.30;;;;;;5042147;28;20036;-81
2023/05/25 08:02:26;;;;;;;2.20;2.05;;;19.70;64.20;;;;;;5042463;28;20036;-81
2023/05/25 08:04:51;;;;;;;4.60;2.17;;;19.70;63.80;;;;;;5043135;28;20041;-81
2023/05/25 08:07:20;;;;;;;2.20;2.00;;;19.70;64.00;;;;;;5040075;28;20044;-81
2023/05/25 08:09:46;;;;;;;3.03;2.10;;;19.70;63.80;;;;;;5042168;28;20036;-81
2023/05/25 08:12:11;;;;;;;2.00;1.80;;;19.70;63.80;;;;;;5043029;28;20068;-81
2023/05/25 08:14:37;;;;;;;2.10;2.00;;;19.80;64.00;;;;;;5038852;28;20148;-81
2023/05/25 08:17:03;;;;;;;2.15;1.95;;;19.70;63.80;;;;;;5044391;28;20071;-81
2023/05/25 08:19:32;;;;;;;1.95;1.77;;;19.80;64.00;;;;;;5050516;28;20043;-81
2023/05/25 08:21:58;;;;;;;1.73;1.63;;;19.80;64.00;;;;;;5042749;28;20106;-82
2023/05/25 08:24:24;;;;;;;1.83;1.63;;;19.80;64.00;;;;;;5027614;28;20048;-81
2023/05/25 08:26:50;;;;;;;2.05;1.92;;;19.80;64.00;;;;;;5038038;28;20064;-81
2023/05/25 08:29:15;;;;;;;1.70;1.60;;;19.80;63.90;;;;;;5041125;28;20041;-82
2023/05/25 08:31:42;;;;;;;1.52;1.38;;;19.80;63.80;;;;;;5045361;28;20049;-81
2023/05/25 08:34:08;;;;;;;1.58;1.48;;;19.80;63.70;;;;;;5039839;28;20049;-81
2023/05/25 08:36:34;;;;;;;1.70;1.60;;;19.90;63.70;;;;;;5042236;28;20045;-81
2023/05/25 08:39:00;;;;;;;1.35;1.25;;;19.90;63.80;;;;;;5031630;28;20082;-82
2023/05/25 08:41:26;;;;;;;1.77;1.67;;;19.80;63.80;;;;;;5041560;28;20465;-82
2023/05/25 08:43:51;;;;;;;1.60;1.50;;;19.90;64.00;;;;;;5043549;28;20560;-81
2023/05/25 08:46:31;;;;;;;1.38;1.27;;;19.90;63.80;;;;;;5043780;28;20033;-81
2023/05/25 08:49:10;;;;;;;2.00;1.50;;;19.90;63.90;;;;;;5047291;28;20041;-82
2023/05/25 08:51:37;;;;;;;2.42;1.40;;;19.90;63.80;;;;;;5025585;28;20044;-81
2023/05/25 08:54:12;;;;;;;1.77;1.50;;;19.90;63.80;;;;;;5036023;28;20052;-82
2023/05/25 08:56:46;;;;;;;1.60;1.50;;;19.90;63.80;;;;;;5041522;28;20402;-82
2023/05/25 08:59:17;;;;;;;;;;;19.90;63.70;;;;;;5039331;28;20549;-81
2023/05/25 09:01:44;;;;;;;3.40;1.38;;;19.90;64.40;;;;;;5054276;28;20405;-81
2023/05/25 09:04:12;;;;;;;1.40;1.30;;;19.90;63.90;;;;;;5045712;28;20517;-82
2023/05/25 09:06:38;;;;;;;1.55;1.45;;;20.00;63.80;;;;;;5037591;28;20041;-82
2023/05/25 09:09:04;;;;;;;1.70;1.60;;;20.00;63.90;;;;;;5045859;28;20057;-81
2023/05/25 09:11:30;;;;;;;1.45;1.35;;;20.00;63.70;;;;;;5042131;28;20047;-81
2023/05/25 09:13:55;;;;;;;1.55;1.33;;;20.00;63.60;;;;;;5024203;28;20139;-81
2023/05/25 09:16:21;;;;;;;1.70;1.60;;;20.00;63.50;;;;;;5057361;28;20202;-81
2023/05/25 09:18:47;;;;;;;1.17;1.17;;;20.00;63.60;;;;;;5046347;28;20052;-81
2023/05/25 09:21:12;;;;;;;2.22;1.58;;;20.00;63.60;;;;;;5045139;28;20033;-81
2023/05/25 09:23:38;;;;;;;2.97;2.00;;;20.10;63.70;;;;;;5040684;28;20507;-81
2023/05/25 09:26:03;;;;;;;1.40;1.30;;;20.10;63.70;;;;;;5047236;28;20075;-82
2023/05/25 09:28:29;;;;;;;1.42;1.33;;;20.00;63.60;;;;;;5058661;28;20033;-82
2023/05/25 09:30:54;;;;;;;1.45;1.35;;;20.10;63.80;;;;;;5042502;28;20041;-82
2023/05/25 09:33:20;;;;;;;1.20;1.10;;;20.00;63.80;;;;;;5044968;28;20044;-82
2023/05/25 09:35:46;;;;;;;0.95;0.95;;;20.10;63.80;;;;;;5046674;28;20127;-81
2023/05/25 09:38:15;;;;;;;1.23;1.13;;;20.10;63.80;;;;;;5032311;28;20033;-82
2023/05/25 09:40:40;;;;;;;1.02;1.02;;;20.00;64.60;;;;;;5059326;28;20041;-82
2023/05/25 09:43:06;;;;;;;1.15;1.15;;;20.00;63.70;;;;;;5053491;28;20517;-82
2023/05/25 09:45:31;;;;;;;1.30;1.20;;;20.10;63.70;;;;;;5046942;28;20041;-82
2023/05/25 09:47:57;;;;;;;1.15;1.08;;;20.10;63.70;;;;;;5046305;28;20513;-81
2023/05/25 09:50:25;;;;;;;1.38;1.23;;;20.10;63.80;;;;;;5052712;28;20609;-82
2023/05/25 09:52:53;;;;;;;1.35;1.25;;;20.10;63.80;;;;;;5044427;28;20095;-82
2023/05/25 09:55:19;;;;;;;1.40;1.30;;;20.10;63.70;;;;;;5045915;28;20056;-82
2023/05/25 09:57:45;;;;;;;1.10;1.10;;;20.10;63.70;;;;;;5027953;28;20414;-82
2023/05/25 10:00:11;;;;;;;1.00;1.00;;;20.10;63.70;;;;;;5047250;28;20037;-82
2023/05/25 10:02:36;;;;;;;1.40;1.30;;;20.10;63.60;;;;;;5033262;28;20028;-82
2023/05/25 10:05:02;;;;;;;1.00;0.95;;;20.10;63.60;;;;;;5042250;28;20445;-82
2023/05/25 10:07:28;;;;;;;1.38;1.27;;;20.10;63.70;;;;;;5044770;28;20040;-82
2023/05/25 10:09:53;;;;;;;1.27;1.25;;;20.10;63.60;;;;;;5033676;28;20041;-82
2023/05/25 10:12:19;;;;;;;0.90;0.90;;;20.10;63.60;;;;;;5042069;28;20151;-83
2023/05/25 10:14:45;;;;;;;1.10;1.10;;;20.10;63.50;;;;;;5034373;28;20421;-80
2023/05/25 10:17:11;;;;;;;1.15;1.10;;;20.20;63.20;;;;;;5035792;28;20052;-84
2023/05/25 10:19:40;;;;;;;1.20;1.10;;;20.20;63.40;;;;;;5048207;28;20041;-81
2023/05/25 10:22:21;;;;;;;1.30;1.20;;;20.20;63.30;;;;;;5033508;28;20046;-84
2023/05/25 10:24:55;;;;;;;2.38;1.00;;;20.20;63.20;;;;;;5016486;28;20041;-80
2023/05/25 10:27:27;;;;;;;1.25;1.20;;;20.20;63.40;;;;;;5048310;28;20127;-82
2023/05/25 10:29:53;;;;;;;1.30;1.20;;;20.30;63.40;;;;;;5036134;28;20493;-82
2023/05/25 10:32:19;;;;;;;1.08;1.08;;;20.30;63.10;;;;;;5036100;28;20071;-82
2023/05/25 10:34:45;;;;;;;8.27;1.00;;;20.30;62.80;;;;;;5044600;28;20417;-82
2023/05/25 10:37:11;;;;;;;0.85;0.85;;;20.30;62.90;;;;;;5042464;28;20102;-82
2023/05/25 10:39:37;;;;;;;1.50;1.00;;;20.30;62.70;;;;;;5024515;28;20532;-83
2023/05/25 10:42:03;;;;;;;1.00;1.00;;;20.30;62.60;;;;;;5041979;28;20065;-82
2023/05/25 10:44:29;;;;;;;1.10;1.10;;;20.30;62.90;;;;;;5040684;28;20479;-82
2023/05/25 10:46:55;;;;;;;1.00;1.00;;;20.30;62.80;;;;;;5045743;28;20071;-82
2023/05/25 10:49:34;;;;;;;0.90;0.90;;;20.30;62.70;;;;;;5041849;28;20044;-82
2023/05/25 10:52:00;;;;;;;0.80;0.80;;;20.30;62.80;;;;;;5044764;28;20048;-82
2023/05/25 10:54:37;;;;;;;2.13;1.05;;;20.30;62.80;;;;;;5056546;28;20047;-82
2023/05/25 10:57:10;;;;;;;1.00;1.00;;;20.30;62.70;;;;;;5042465;28;20041;-82
2023/05/25 10:59:40;;;;;;;0.95;0.90;;;20.30;62.80;;;;;;5046709;28;20119;-83
2023/05/25 11:02:06;;;;;;;0.93;0.93;;;20.30;62.60;;;;;;5044789;28;20041;-82
2023/05/25 11:04:35;;;;;;;0.90;0.90;;;20.40;62.60;;;;;;5042393;28;20521;-82
2023/05/25 11:07:01;;;;;;;0.80;0.80;;;20.30;62.60;;;;;;5041971;28;20037;-82
2023/05/25 11:09:29;;;;;;;2.45;1.20;;;20.30;62.60;;;;;;5044281;28;20077;-83
2023/05/25 11:11:55;;;;;;;1.15;0.80;;;20.40;62.70;;;;;;5036894;28;20036;-81
2023/05/25 11:14:28;;;;;;;0.73;0.73;;;20.30;62.70;;;;;;5044836;28;20045;-82
2023/05/25 11:17:18;;;;;;;0.83;0.83;;;20.30;62.60;;;;;;5040899;28;20521;-82
2023/05/25 11:19:49;;;;;;;0.82;0.82;;;20.40;62.70;;;;;;5047107;28;20780;-82
2023/05/25 11:22:31;;;;;;;0.98;0.98;;;20.40;62.60;;;;;;5046870;28;20048;-83
2023/05/25 11:24:58;;;;;;;0.95;0.95;;;20.40;62.60;;;;;;5039277;28;20090;-82
2023/05/25 11:27:27;;;;;;;1.10;1.00;;;20.40;62.60;;;;;;5046868;28;20044;-82
2023/05/25 11:29:53;;;;;;;0.90;0.90;;;20.40;62.50;;;;;;5042765;28;20128;-82
2023/05/25 11:32:19;;;;;;;1.40;0.88;;;20.40;62.40;;;;;;5044550;28;20626;-83
2023/05/25 11:34:50;;;;;;;1.00;1.00;;;20.40;62.40;;;;;;5045529;28;20124;-83
2023/05/25 11:37:19;;;;;;;0.77;0.77;;;20.40;62.40;;;;;;5047345;28;20118;-82
2023/05/25 11:39:52;;;;;;;0.85;0.85;;;20.40;62.40;;;;;;5039325;28;20037;-83
2023/05/25 11:42:21;;;;;;;0.88;0.88;;;20.40;62.50;;;;;;5048745;28;20049;-82
2023/05/25 11:44:47;;;;;;;0.80;0.80;;;20.40;62.40;;;;;;5051933;28;20422;-83
2023/05/25 11:47:13;;;;;;;1.25;0.95;;;20.40;62.40;;;;;;5027445;28;20037;-82
2023/05/25 11:49:44;;;;;;;0.85;0.85;;;20.50;62.50;;;;;;5052512;28;20067;-83
2023/05/25 11:52:11;;;;;;;0.80;0.80;;;20.40;62.30;;;;;;5048632;28;20088;-82
2023/05/25 11:54:39;;;;;;;0.85;0.85;;;20.50;62.50;;;;;;5048694;28;20075;-83
2023/05/25 11:57:15;;;;;;;0.73;0.73;;;20.40;62.40;;;;;;5052043;28;20040;-82
2023/05/25 11:59:47;;;;;;;1.10;1.10;;;20.40;62.50;;;;;;5031744;28;20041;-81
2023/05/25 12:02:13;;;;;;;0.80;0.80;;;20.40;62.20;;;;;;5047523;28;20045;-82
2023/05/25 12:04:39;;;;;;;1.00;1.00;;;20.40;62.10;;;;;;5057138;28;20040;-82
2023/05/25 12:07:08;;;;;;;0.95;0.95;;;20.50;62.10;;;;;;5047445;28;20056;-82
2023/05/25 12:09:35;;;;;;;0.90;0.90;;;20.50;62.40;;;;;;5042000;28;20041;-82
2023/05/25 12:12:02;;;;;;;0.90;0.90;;;20.50;62.30;;;;;;5036718;28;20045;-82
2023/05/25 12:14:28;;;;;;;1.02;1.02;;;20.50;62.30;;;;;;5051347;28;20049;-82
2023/05/25 12:16:54;;;;;;;1.23;1.13;;;20.50;62.30;;;;;;5035321;28;20125;-81
2023/05/25 12:19:20;;;;;;;1.02;0.90;;;20.50;62.20;;;;;;5017583;28;20087;-82
2023/05/25 12:21:46;;;;;;;0.80;0.80;;;20.50;62.10;;;;;;5038377;28;20048;-82
2023/05/25 12:24:12;;;;;;;1.00;1.00;;;20.50;62.10;;;;;;5048671;28;20563;-82
2023/05/25 12:26:48;;;;;;;0.98;0.90;;;20.50;62.10;;;;;;5031277;28;20061;-82
2023/05/25 12:29:14;;;;;;;0.70;0.70;;;20.50;62.00;;;;;;5048583;28;20045;-82
2023/05/25 12:31:39;;;;;;;1.05;0.95;;;20.50;61.90;;;;;;5053189;28;20041;-82
2023/05/25 12:34:12;;;;;;;0.80;0.80;;;20.60;62.00;;;;;;5050240;28;20075;-82
2023/05/25 12:36:41;;;;;;;1.00;1.00;;;20.60;62.80;;;;;;5054169;28;20045;-82
2023/05/25 12:39:08;;;;;;;0.73;0.73;;;20.60;61.90;;;;;;5028624;28;20057;-82
2023/05/25 12:41:49;;;;;;;1.08;0.90;;;20.60;61.90;;;;;;5042600;28;20064;-82
2023/05/25 12:44:20;;;;;;;0.82;0.77;;;20.60;61.90;;;;;;5035044;28;20050;-81
2023/05/25 12:46:46;;;;;;;0.80;0.80;;;20.60;61.90;;;;;;5056222;28;20141;-82